Time;durP1;ratioP1;P1;durP2;ratioP2;P2;SDS_P1;SDS_P2;PMS_P1;PMS_P2;Temp;Humidity;BMP_temperature;BMP_pressure;BME280_temperature;BME280_humidity;BME280_pressure;Samples;Min_cycle;Max_cycle;Signal;HPM_P1;HPM_P2
2022/04/12 00:01:37;;;;;;;6.95;4.70;;;11.70;75.40;;;11.59;65.57;100193.88;5010088;28;20503;-75
2022/04/12 00:04:05;;;;;;;5.93;4.35;;;11.70;75.50;;;11.55;66.15;100203.63;4984806;28;20072;-74
2022/04/12 00:06:32;;;;;;;7.28;4.30;;;11.60;75.70;;;11.60;65.48;100199.06;5010091;28;20495;-74
2022/04/12 00:08:59;;;;;;;6.15;4.70;;;12.00;76.30;;;11.58;65.34;100195.63;5008287;28;20494;-75
2022/04/12 00:11:26;;;;;;;6.60;4.93;;;11.60;76.30;;;11.59;64.95;100194.72;5008599;28;20041;-74
2022/04/12 00:13:53;;;;;;;5.55;4.75;;;11.60;76.50;;;11.48;66.26;100191.56;5006677;28;20494;-73
2022/04/12 00:16:20;;;;;;;6.95;4.70;;;11.70;76.70;;;11.49;67.40;100194.13;4999890;28;20070;-74
2022/04/12 00:19:02;;;;;;;8.18;4.93;;;12.40;77.50;;;11.49;66.12;100190.66;5007450;28;20045;-75
2022/04/12 00:21:35;;;;;;;6.70;4.85;;;11.50;77.30;;;11.47;66.57;100188.06;5008509;28;20049;-74
2022/04/12 00:24:05;;;;;;;6.13;4.75;;;12.00;77.60;;;11.44;68.21;100187.28;5008045;28;20038;-75
2022/04/12 00:26:35;;;;;;;5.70;4.53;;;11.50;77.70;;;11.39;68.17;100184.78;5007938;28;20121;-75
2022/04/12 00:29:02;;;;;;;4.45;4.00;;;11.50;78.00;;;11.36;68.45;100179.59;5008924;28;20042;-74
2022/04/12 00:31:31;;;;;;;6.22;5.10;;;12.40;78.60;;;11.37;68.99;100173.44;5008299;28;20459;-75
2022/04/12 00:33:59;;;;;;;7.20;5.20;;;11.40;79.00;;;11.35;68.92;100181.41;5007211;28;20042;-75
2022/04/12 00:36:26;;;;;;;6.60;5.18;;;11.40;78.80;;;11.29;68.30;100178.94;5023445;28;20535;-74
2022/04/12 00:38:53;;;;;;;5.43;4.30;;;11.40;78.70;;;11.24;69.13;100183.47;5024346;28;20037;-75
2022/04/12 00:41:20;;;;;;;5.95;4.82;;;11.30;79.30;;;11.21;69.79;100180.94;5007954;28;20124;-75
2022/04/12 00:43:47;;;;;;;6.10;4.65;;;11.30;79.50;;;11.25;69.18;100185.19;5007027;28;20061;-75
2022/04/12 00:46:14;;;;;;;6.97;5.00;;;11.30;79.70;;;11.17;69.62;100188.06;5008193;28;20096;-74
2022/04/12 00:48:41;;;;;;;6.03;4.63;;;11.30;79.80;;;11.25;68.44;100187.00;5007046;28;20049;-74
2022/04/12 00:51:09;;;;;;;8.73;4.80;;;11.80;79.90;;;11.21;69.61;100181.78;4988241;28;20053;-74
2022/04/12 00:53:37;;;;;;;7.45;4.93;;;11.30;80.30;;;11.13;69.89;100183.81;5002298;28;20053;-74
2022/04/12 00:56:05;;;;;;;5.90;4.80;;;11.20;80.20;;;11.14;69.35;100180.25;4990099;28;20514;-74
2022/04/12 00:58:33;;;;;;;6.85;4.93;;;11.20;80.40;;;11.11;71.49;100187.38;5006227;28;20478;-74
2022/04/12 01:00:59;;;;;;;8.90;5.78;;;11.40;81.50;;;11.10;70.17;100188.28;5008584;28;20050;-75
2022/04/12 01:03:27;;;;;;;7.93;5.68;;;11.30;81.00;;;11.12;69.75;100181.19;5006634;28;20058;-75
2022/04/12 01:05:56;;;;;;;5.72;4.60;;;11.10;81.00;;;11.12;70.87;100183.84;5007181;28;20042;-74
2022/04/12 01:08:23;;;;;;;6.38;5.13;;;11.10;81.40;;;11.13;69.49;100185.56;5007313;28;20041;-76
2022/04/12 01:10:52;;;;;;;5.78;4.90;;;11.10;81.10;;;11.07;71.16;100182.22;5007460;28;20042;-74
2022/04/12 01:13:20;;;;;;;5.97;4.82;;;11.20;81.90;;;11.00;71.40;100185.06;5005676;28;20572;-73
2022/04/12 01:15:47;;;;;;;5.78;4.68;;;11.10;81.80;;;10.97;72.34;100174.63;5007490;28;20394;-76
2022/04/12 01:18:14;;;;;;;6.45;5.47;;;11.10;81.70;;;10.92;73.02;100177.38;5006614;28;20045;-74
2022/04/12 01:20:42;;;;;;;5.45;4.85;;;12.00;83.00;;;10.92;72.06;100172.13;5006881;28;20053;-74
2022/04/12 01:23:33;;;;;;;8.13;5.25;;;11.00;82.20;;;10.91;71.23;100173.03;5006747;28;20046;-74
2022/04/12 01:26:01;;;;;;;6.15;4.25;;;11.00;82.30;;;10.91;72.16;100168.59;5006757;28;20125;-75
2022/04/12 01:28:28;;;;;;;5.60;4.57;;;10.90;82.50;;;10.87;73.95;100174.88;4991423;28;20054;-76
2022/04/12 01:30:56;;;;;;;5.20;4.43;;;11.30;83.60;;;10.88;73.40;100181.88;5007730;28;20041;-76
2022/04/12 01:33:23;;;;;;;7.28;4.88;;;10.90;82.90;;;10.86;72.69;100175.78;5007231;28;20045;-76
2022/04/12 01:35:50;;;;;;;6.07;4.57;;;10.90;82.70;;;10.80;75.36;100170.72;5007639;28;20166;-76
2022/04/12 01:38:18;;;;;;;6.82;5.03;;;10.90;84.10;;;10.74;76.81;100177.00;5007454;28;20042;-76
2022/04/12 01:40:45;;;;;;;8.77;5.72;;;10.90;84.40;;;10.67;76.88;100177.22;5005955;28;20041;-76
2022/04/12 01:43:12;;;;;;;5.55;4.85;;;10.80;84.40;;;10.69;75.54;100178.03;5006861;28;20072;-77
2022/04/12 01:45:39;;;;;;;6.47;4.85;;;10.80;84.50;;;10.62;75.95;100167.69;5024285;28;20419;-77
2022/04/12 01:48:06;;;;;;;7.82;5.88;;;10.80;84.80;;;10.64;76.89;100172.88;5004708;28;20046;-77
2022/04/12 01:50:33;;;;;;;5.93;4.57;;;10.70;84.70;;;10.54;79.04;100171.44;5007092;28;20037;-76
2022/04/12 01:53:00;;;;;;;5.68;4.63;;;10.70;85.40;;;10.58;77.43;100170.44;5006798;28;20046;-77
2022/04/12 01:55:27;;;;;;;6.90;4.68;;;10.70;85.40;;;10.43;79.21;100176.94;5006968;28;20048;-77
2022/04/12 01:57:54;;;;;;;6.45;4.60;;;10.60;85.80;;;10.42;78.92;100172.59;4990792;28;20050;-76
2022/04/12 02:00:21;;;;;;;5.22;4.40;;;10.60;86.10;;;10.41;80.58;100165.63;5007432;28;20502;-76
2022/04/12 02:02:48;;;;;;;5.25;4.60;;;10.50;86.90;;;10.36;81.79;100169.19;5006272;28;20041;-76
2022/04/12 02:05:15;;;;;;;8.25;4.75;;;10.50;87.20;;;10.32;81.26;100172.81;5007359;28;20045;-76
2022/04/12 02:07:45;;;;;;;5.63;4.18;;;10.50;87.10;;;10.33;80.75;100166.66;4990722;28;20602;-76
2022/04/12 02:10:13;;;;;;;;;;;11.60;87.70;;;10.26;82.46;100167.72;5007375;28;20533;-77
2022/04/12 02:12:40;;;;;;;7.00;4.85;;;10.50;87.80;;;10.32;81.73;100164.06;5005914;28;19933;-76
2022/04/12 02:15:08;;;;;;;6.15;5.15;;;10.40;87.90;;;10.28;81.90;100165.91;5006599;28;20052;-77
2022/04/12 02:17:35;;;;;;;8.35;5.07;;;10.40;88.30;;;10.22;83.21;100171.31;5007702;28;20076;-76
2022/04/12 02:20:02;;;;;;;8.20;4.72;;;10.30;88.30;;;10.27;83.49;100165.97;5007920;28;20129;-76
2022/04/12 02:22:29;;;;;;;5.93;4.82;;;10.40;89.00;;;10.24;82.90;100163.41;5006154;28;20049;-76
2022/04/12 02:24:56;;;;;;;10.55;4.78;;;10.40;88.80;;;10.23;83.00;100164.31;5006042;28;20671;-76
2022/04/12 02:27:23;;;;;;;6.47;4.90;;;10.30;88.70;;;10.21;82.17;100159.94;5007598;28;20657;-76
2022/04/12 02:29:50;;;;;;;7.03;4.47;;;10.70;88.70;;;10.18;84.70;100159.16;5006605;28;20044;-76
2022/04/12 02:32:17;;;;;;;5.43;4.40;;;10.30;89.30;;;10.20;82.54;100152.09;5004547;28;20046;-76
2022/04/12 02:34:44;;;;;;;5.57;4.88;;;10.30;88.80;;;10.15;83.62;100152.22;5007545;28;20038;-76
2022/04/12 02:37:11;;;;;;;7.57;4.95;;;10.30;89.00;;;10.15;84.06;100161.88;5005916;28;20049;-76
2022/04/12 02:39:38;;;;;;;6.22;4.90;;;10.20;89.40;;;10.12;83.00;100156.69;5006431;28;20069;-76
2022/04/12 02:42:06;;;;;;;6.22;4.47;;;10.80;89.70;;;10.13;86.34;100154.03;5007701;28;20049;-76
2022/04/12 02:44:32;;;;;;;7.35;4.53;;;10.30;90.20;;;10.04;85.77;100157.75;5005770;28;20054;-76
2022/04/12 02:46:59;;;;;;;9.45;4.95;;;10.90;90.20;;;10.05;85.25;100153.34;5005656;28;20490;-76
2022/04/12 02:49:27;;;;;;;6.35;4.80;;;10.20;90.00;;;10.02;85.26;100151.69;5022514;28;20050;-76
2022/04/12 02:51:53;;;;;;;6.13;5.03;;;10.20;90.10;;;10.04;84.31;100156.88;5006166;28;20042;-77
2022/04/12 02:54:20;;;;;;;5.32;4.15;;;10.20;89.90;;;10.01;85.24;100162.22;5005483;28;20057;-77
2022/04/12 02:56:47;;;;;;;5.72;5.13;;;10.10;90.20;;;9.91;87.63;100159.84;5019856;28;20043;-77
2022/04/12 02:59:14;;;;;;;8.82;4.90;;;10.10;90.30;;;9.96;85.65;100157.06;4986784;28;20512;-77
2022/04/12 03:01:41;;;;;;;10.88;5.82;;;10.40;90.30;;;9.90;87.35;100151.97;5019924;28;20060;-77
2022/04/12 03:04:09;;;;;;;5.50;4.70;;;11.30;90.90;;;9.91;87.72;100153.69;5002529;28;20153;-77
2022/04/12 03:06:36;;;;;;;6.82;4.78;;;10.10;90.60;;;9.94;86.54;100156.25;5015519;28;20038;-77
2022/04/12 03:09:03;;;;;;;7.20;4.80;;;10.00;90.40;;;9.92;86.82;100145.78;5008106;28;20068;-77
2022/04/12 03:11:30;;;;;;;8.63;6.38;;;10.80;90.70;;;9.82;89.54;100149.53;5006098;28;20057;-76
2022/04/12 03:13:57;;;;;;;7.38;5.30;;;10.00;90.90;;;9.83;88.08;100151.25;5003062;28;20053;-76
2022/04/12 03:16:24;;;;;;;10.52;5.57;;;10.00;90.70;;;9.87;88.60;100146.81;5005976;28;20046;-76
2022/04/12 03:18:51;;;;;;;6.35;5.40;;;10.00;90.90;;;9.81;89.72;100147.81;4990232;28;20446;-77
2022/04/12 03:21:18;;;;;;;6.97;4.75;;;10.00;91.00;;;9.81;88.78;100146.94;4992813;28;20049;-78
2022/04/12 03:23:45;;;;;;;7.30;4.78;;;9.90;90.90;;;9.79;88.99;100152.25;5009099;28;20513;-77
2022/04/12 03:26:12;;;;;;;7.15;5.25;;;9.90;91.00;;;9.76;89.44;100144.44;4991623;28;20050;-76
2022/04/12 03:28:39;;;;;;;8.00;5.97;;;9.90;91.10;;;9.77;89.51;100144.38;5009153;28;20045;-76
2022/04/12 03:31:06;;;;;;;7.28;5.15;;;9.90;91.10;;;9.75;88.65;100142.69;5007426;28;20045;-77
2022/04/12 03:33:34;;;;;;;6.07;4.38;;;9.90;91.10;;;9.72;89.01;100138.38;5011387;28;20038;-78
2022/04/12 03:36:01;;;;;;;7.50;4.90;;;9.90;90.90;;;9.73;90.28;100144.50;4998342;28;20118;-78
2022/04/12 03:38:28;;;;;;;6.15;5.28;;;10.30;91.40;;;9.62;92.44;100144.75;5014989;28;20040;-79
2022/04/12 03:40:58;;;;;;;12.05;5.63;;;9.80;91.40;;;9.67;91.60;100149.91;5010994;28;20038;-79
2022/04/12 03:43:25;;;;;;;6.82;5.93;;;9.80;91.50;;;9.63;90.49;100151.72;5009997;28;20084;-78
2022/04/12 03:45:52;;;;;;;9.10;5.65;;;9.80;91.30;;;9.63;91.72;100154.34;5010313;28;20466;-76
2022/04/12 03:48:19;;;;;;;7.65;5.50;;;10.90;91.80;;;9.63;92.35;100149.97;5011343;28;20045;-80
2022/04/12 03:50:46;;;;;;;5.78;5.18;;;9.70;91.70;;;9.49;94.11;100160.78;4994443;28;20502;-79
2022/04/12 03:53:13;;;;;;;6.63;4.50;;;9.70;91.70;;;9.51;93.91;100160.78;5026451;28;20697;-77
2022/04/12 03:55:46;;;;;;;6.50;5.53;;;9.70;91.70;;;9.57;90.95;100159.78;5012453;28;20042;-79
2022/04/12 03:58:19;;;;;;;6.28;4.22;;;9.60;91.40;;;9.46;91.61;100157.41;5012239;28;20049;-77
2022/04/12 04:00:52;;;;;;;6.80;5.28;;;10.00;91.60;;;9.51;91.46;100151.09;5011619;28;20042;-76
2022/04/12 04:03:19;;;;;;;7.57;4.90;;;9.60;91.60;;;9.50;89.85;100159.03;4999571;28;20046;-78
2022/04/12 04:05:46;;;;;;;7.97;5.95;;;9.60;91.50;;;9.45;93.33;100156.50;5035186;28;20092;-78
2022/04/12 04:08:13;;;;;;;8.48;5.50;;;9.60;91.70;;;9.46;92.43;100154.78;5018646;28;20049;-77
2022/04/12 04:10:40;;;;;;;6.50;5.63;;;9.60;91.60;;;9.39;94.16;100146.16;5001994;28;20080;-78
2022/04/12 04:13:08;;;;;;;9.10;5.57;;;9.50;91.80;;;9.40;94.72;100139.13;5018055;28;20046;-77
2022/04/12 04:15:36;;;;;;;5.72;4.65;;;9.60;92.00;;;9.38;94.01;100141.81;5016962;28;20046;-78
2022/04/12 04:18:03;;;;;;;7.03;5.60;;;9.50;91.90;;;9.36;93.64;100141.84;5014582;28;20046;-77
2022/04/12 04:20:30;;;;;;;7.43;6.00;;;9.50;91.80;;;9.33;93.43;100144.53;5014272;28;20038;-78
2022/04/12 04:22:59;;;;;;;9.63;6.13;;;9.50;91.90;;;9.32;91.89;100141.94;5031412;28;20076;-78
2022/04/12 04:25:26;;;;;;;8.27;6.13;;;9.40;91.70;;;9.27;95.38;100149.06;5016314;28;20069;-78
2022/04/12 04:27:53;;;;;;;7.97;6.35;;;9.40;92.10;;;9.22;95.53;100157.03;5014157;28;20068;-77
2022/04/12 04:30:21;;;;;;;8.07;5.22;;;9.40;92.10;;;9.21;95.65;100142.19;5010030;28;20053;-77
2022/04/12 04:32:49;;;;;;;6.43;5.70;;;9.40;92.20;;;9.14;97.82;100151.09;5009618;28;20038;-79
2022/04/12 04:35:17;;;;;;;5.80;4.72;;;9.30;92.50;;;9.15;98.81;100152.81;4993024;28;20050;-78
2022/04/12 04:37:49;;;;;;;9.23;5.95;;;9.30;92.70;;;9.12;96.49;100153.75;5005306;28;20038;-79
2022/04/12 04:40:19;;;;;;;7.40;5.13;;;9.30;92.50;;;9.16;96.84;100154.56;4990359;28;20427;-77
2022/04/12 04:42:47;;;;;;;7.57;6.35;;;9.20;92.30;;;9.16;96.51;100152.78;4992037;28;20056;-77
2022/04/12 04:45:18;;;;;;;6.55;4.88;;;9.30;92.30;;;9.03;98.31;100154.81;4992630;28;20130;-77
2022/04/12 04:47:54;;;;;;;6.38;5.35;;;9.70;92.60;;;9.16;96.49;100162.44;4975037;28;20050;-79
2022/04/12 04:50:26;;;;;;;8.70;5.65;;;9.30;92.50;;;9.14;98.04;100159.81;4972141;28;20050;-79
2022/04/12 04:52:53;;;;;;;6.53;5.65;;;10.40;92.80;;;9.12;98.27;100161.63;5006241;28;20474;-77
2022/04/12 04:55:20;;;;;;;7.85;6.00;;;9.40;92.60;;;9.14;97.80;100162.44;5008055;28;20046;-78
2022/04/12 04:57:48;;;;;;;8.68;6.90;;;9.20;92.70;;;9.17;97.43;100157.13;5008024;28;20697;-77
2022/04/12 05:00:18;;;;;;;8.93;8.02;;;9.30;92.80;;;9.19;98.22;100159.72;5009688;28;20556;-77
2022/04/12 05:02:50;;;;;;;11.90;7.13;;;9.20;92.90;;;9.16;97.75;100160.66;5006134;28;20045;-77
2022/04/12 05:05:18;;;;;;;9.07;8.13;;;9.30;92.90;;;9.19;97.45;100152.69;5014853;28;20056;-78
2022/04/12 05:07:52;;;;;;;9.07;8.18;;;9.30;92.90;;;9.22;97.65;100154.41;5015066;28;20046;-79
2022/04/12 05:10:24;;;;;;;10.80;7.85;;;9.30;92.90;;;9.18;98.42;100163.25;5016049;28;20045;-77
2022/04/12 05:12:51;;;;;;;9.93;7.60;;;9.30;93.00;;;9.18;99.00;100164.09;5018355;28;20062;-78
2022/04/12 05:15:18;;;;;;;8.02;7.22;;;9.30;92.90;;;9.18;98.10;100168.50;5014159;28;20081;-76
2022/04/12 05:17:53;;;;;;;9.35;6.60;;;9.30;92.80;;;9.20;98.87;100169.31;5009382;28;20045;-78
2022/04/12 05:20:25;;;;;;;9.02;5.88;;;9.30;92.90;;;9.21;97.22;100169.31;5004722;28;20153;-77
2022/04/12 05:22:53;;;;;;;8.13;5.65;;;10.50;93.30;;;9.19;98.74;100170.22;4992587;28;20149;-77
2022/04/12 05:25:21;;;;;;;7.18;5.70;;;10.90;93.40;;;9.20;99.73;100178.06;4989348;28;20058;-78
2022/04/12 05:27:49;;;;;;;6.40;5.63;;;9.40;93.10;;;9.23;98.64;100179.75;5018188;28;20074;-76
2022/04/12 05:30:16;;;;;;;7.07;5.50;;;9.30;93.00;;;9.24;99.22;100178.84;5027647;28;20038;-80
2022/04/12 05:32:45;;;;;;;5.68;5.07;;;9.40;93.10;;;9.21;100.00;100176.31;5019580;28;20033;-80
2022/04/12 05:35:13;;;;;;;10.55;6.22;;;9.30;93.30;;;9.26;100.00;100184.09;5008085;28;20034;-81
2022/04/12 05:37:52;;;;;;;8.23;4.30;;;9.30;93.20;;;9.25;97.53;100183.22;5027512;28;20084;-80
2022/04/12 05:40:22;;;;;;;;;;;9.30;92.90;;;9.31;98.29;100183.09;5024620;28;20069;-81
2022/04/12 05:42:51;;;;;;;7.43;5.05;;;9.30;93.00;;;9.33;98.30;100196.16;5023385;28;20028;-81
2022/04/12 05:45:18;;;;;;;5.95;5.00;;;9.40;93.00;;;9.31;96.94;100188.34;5007404;28;20050;-80
2022/04/12 05:51:00;;;;;;;6.35;4.40;;;9.40;93.10;;;9.34;97.49;100196.16;4834697;26;20054;-70
2022/04/12 05:53:27;;;;;;;5.68;5.00;;;9.40;93.10;;;9.37;100.00;100195.22;5023348;28;20091;-69
2022/04/12 05:55:54;;;;;;;7.03;5.07;;;10.00;93.40;;;9.35;99.93;100189.13;5022194;28;20061;-70
2022/04/12 05:58:21;;;;;;;8.07;5.18;;;9.40;93.20;;;9.42;98.96;100181.97;5029595;28;20048;-70
2022/04/12 06:00:48;;;;;;;5.82;4.82;;;9.50;93.10;;;9.43;97.95;100183.69;5029494;28;20652;-70
2022/04/12 06:03:16;;;;;;;9.00;5.22;;;9.50;93.20;;;9.49;99.95;100183.59;5029555;28;20517;-70
2022/04/12 06:05:43;;;;;;;8.82;5.20;;;9.60;93.30;;;9.55;98.43;100178.19;5019470;28;20044;-70
2022/04/12 06:08:10;;;;;;;5.00;4.50;;;9.60;93.10;;;9.60;99.42;100180.72;5021599;28;20116;-70
2022/04/12 06:10:37;;;;;;;6.20;4.75;;;9.70;93.30;;;9.70;97.73;100182.22;5018148;28;20046;-70
2022/04/12 06:13:04;;;;;;;5.90;4.45;;;9.70;93.20;;;9.77;98.53;100191.69;5019597;28;20045;-72
2022/04/12 06:15:31;;;;;;;5.72;4.80;;;9.80;93.20;;;9.81;99.76;100181.97;5019222;28;20041;-73
2022/04/12 06:18:04;;;;;;;6.10;5.18;;;9.80;93.40;;;9.92;98.25;100187.84;5048262;28;20141;-72
2022/04/12 06:20:31;;;;;;;10.68;5.22;;;9.90;93.30;;;9.98;98.32;100189.44;5031188;28;20440;-71
2022/04/12 06:22:58;;;;;;;7.75;5.82;;;10.00;93.30;;;10.01;98.06;100189.38;5025381;28;20148;-72
2022/04/12 06:25:25;;;;;;;9.48;5.18;;;10.00;93.20;;;10.08;96.14;100190.09;5019868;28;20128;-71
2022/04/12 06:27:52;;;;;;;7.45;4.65;;;10.10;93.00;;;10.12;97.42;100183.84;5027907;28;20049;-72
2022/04/12 06:30:23;;;;;;;10.25;5.00;;;10.10;93.20;;;10.19;95.58;100185.41;5027551;28;20423;-70
2022/04/12 06:32:50;;;;;;;;;;;10.20;93.00;;;10.29;94.11;100183.41;5027618;28;20414;-70
2022/04/12 06:35:18;;;;;;;7.45;5.53;;;10.30;92.80;;;10.31;93.68;100179.00;5026261;28;20035;-70
2022/04/12 06:37:48;;;;;;;5.60;4.60;;;8.80;92.40;;;10.41;92.92;100187.53;5026498;28;20058;-71
2022/04/12 06:40:19;;;;;;;5.13;4.63;;;10.40;92.70;;;10.45;92.09;100181.28;5026395;28;20119;-71
2022/04/12 06:42:51;;;;;;;5.75;5.05;;;10.50;92.50;;;10.53;92.22;100190.72;5028359;28;20398;-70
2022/04/12 06:45:22;;;;;;;7.97;4.68;;;10.50;92.50;;;10.61;90.91;100183.50;5023625;28;20104;-70
2022/04/12 06:47:59;;;;;;;5.70;5.00;;;10.60;92.50;;;10.67;89.43;100183.31;5027611;28;20111;-70
2022/04/12 06:50:28;;;;;;;5.85;4.82;;;10.60;92.20;;;10.70;89.62;100185.91;5027392;28;20087;-71
2022/04/12 06:52:57;;;;;;;7.95;5.00;;;10.70;92.10;;;10.81;88.00;100177.69;5026389;28;20101;-68
2022/04/12 06:55:25;;;;;;;5.80;4.38;;;10.80;92.00;;;10.84;88.70;100182.00;5028384;28;20124;-69
2022/04/12 06:57:52;;;;;;;7.22;4.93;;;10.80;92.10;;;10.94;88.60;100179.97;5017328;28;20530;-70
2022/04/12 07:00:20;;;;;;;5.63;4.13;;;10.90;92.10;;;11.02;88.11;100186.75;5010490;28;20046;-71
2022/04/12 07:02:48;;;;;;;9.25;4.40;;;12.30;92.40;;;11.12;87.34;100183.84;5011470;28;20054;-70
2022/04/12 07:05:16;;;;;;;7.53;4.57;;;11.00;92.00;;;11.18;88.04;100173.97;5014774;28;20041;-69
2022/04/12 07:07:44;;;;;;;6.35;4.40;;;11.10;92.00;;;11.29;87.20;100186.81;5020743;28;20121;-69
2022/04/12 07:10:16;;;;;;;5.90;4.07;;;11.20;92.00;;;11.39;86.87;100194.47;5024345;28;20065;-69
2022/04/12 07:12:44;;;;;;;4.97;4.07;;;12.00;92.20;;;11.53;83.98;100197.53;5016100;28;20120;-66
2022/04/12 07:15:14;;;;;;;7.07;5.10;;;11.40;91.70;;;11.62;83.42;100201.66;5010740;28;20061;-69
2022/04/12 07:17:44;;;;;;;7.00;5.00;;;11.50;91.70;;;11.77;82.83;100201.19;5011985;28;20073;-69
2022/04/12 07:20:20;;;;;;;5.07;4.45;;;11.60;91.60;;;11.86;80.11;100204.41;5022538;28;20147;-67
2022/04/12 07:22:47;;;;;;;7.00;5.18;;;11.70;91.20;;;11.98;80.34;100205.81;5011793;28;20046;-68
2022/04/12 07:25:14;;;;;;;5.30;4.05;;;11.80;91.30;;;12.10;78.24;100217.78;5010130;28;20201;-68
2022/04/12 07:27:41;;;;;;;6.43;5.10;;;11.90;91.10;;;12.20;75.34;100206.84;5015460;28;20059;-68
2022/04/12 07:30:12;;;;;;;9.43;7.50;;;12.10;90.70;;;12.37;73.14;100208.06;5030456;28;20453;-69
2022/04/12 07:32:57;;;;;;;8.13;4.20;;;12.20;90.50;;;12.49;75.37;100209.44;5030802;28;20095;-67
2022/04/12 07:35:27;;;;;;;6.07;3.78;;;12.30;90.70;;;12.60;73.35;100203.78;5030195;28;20046;-67
2022/04/12 07:37:54;;;;;;;5.72;4.10;;;12.40;90.50;;;12.70;74.46;100207.81;5018940;28;20052;-67
2022/04/12 07:40:21;;;;;;;5.00;4.05;;;12.50;90.50;;;12.82;75.28;100203.88;5010470;28;20418;-66
2022/04/12 07:42:48;;;;;;;4.95;3.70;;;12.60;90.60;;;12.94;72.55;100202.56;5011032;28;20052;-67
2022/04/12 07:45:15;;;;;;;4.38;3.58;;;12.70;90.30;;;13.04;70.38;100206.59;5010420;28;20168;-68
2022/04/12 07:47:43;;;;;;;6.70;4.32;;;12.80;89.90;;;13.14;68.41;100195.69;5010540;28;20050;-67
2022/04/12 07:50:10;;;;;;;5.38;4.00;;;13.10;89.90;;;13.28;68.04;100196.03;5021372;28;20041;-73
2022/04/12 07:52:37;;;;;;;5.60;3.80;;;13.00;89.10;;;13.36;67.57;100195.72;5029270;28;20124;-72
2022/04/12 07:55:04;;;;;;;4.72;3.90;;;13.10;88.90;;;13.46;68.06;100196.25;5031115;28;20483;-76
2022/04/12 07:57:31;;;;;;;6.70;4.22;;;13.20;88.90;;;13.56;66.10;100187.06;5030505;28;20045;-74
2022/04/12 07:59:59;;;;;;;5.45;4.65;;;13.30;88.30;;;13.61;64.29;100181.59;5029655;28;20033;-74
2022/04/12 08:02:26;;;;;;;5.47;3.72;;;13.50;87.50;;;13.71;65.04;100177.66;5029275;28;20053;-73
2022/04/12 08:04:55;;;;;;;4.45;3.65;;;13.50;87.50;;;13.81;63.49;100178.13;5029717;28;20048;-74
2022/04/12 08:07:22;;;;;;;5.38;3.97;;;13.60;86.90;;;13.88;63.61;100181.38;5029661;28;20755;-70
2022/04/12 08:09:49;;;;;;;5.03;4.18;;;13.70;86.90;;;13.99;63.16;100175.69;5029268;28;20042;-71
2022/04/12 08:12:16;;;;;;;5.55;3.90;;;13.80;86.70;;;14.07;62.12;100172.72;5023147;28;20044;-69
2022/04/12 08:14:43;;;;;;;6.78;3.83;;;13.80;86.20;;;14.16;62.06;100169.66;5027365;28;20045;-69
2022/04/12 08:17:10;;;;;;;6.10;4.03;;;13.90;86.00;;;14.26;60.86;100175.44;5015835;28;20411;-67
2022/04/12 08:19:38;;;;;;;7.07;4.13;;;14.00;85.50;;;14.32;58.96;100169.91;5021572;28;20045;-70
2022/04/12 08:22:05;;;;;;;7.13;4.38;;;14.10;84.50;;;14.43;58.62;100170.28;5029044;28;20041;-69
2022/04/12 08:24:39;;;;;;;4.90;3.83;;;14.20;84.40;;;14.51;56.93;100164.63;5021196;28;20149;-67
2022/04/12 08:27:06;;;;;;;7.55;4.07;;;14.30;83.60;;;14.58;58.07;100165.22;5029656;28;20124;-67
2022/04/12 08:29:33;;;;;;;9.07;4.15;;;14.40;83.90;;;14.69;57.34;100159.50;5029477;28;20103;-70
2022/04/12 08:32:00;;;;;;;5.82;3.45;;;14.40;83.40;;;14.85;56.62;100159.66;5029629;28;20410;-67
2022/04/12 08:34:27;;;;;;;5.18;3.58;;;14.50;83.40;;;14.96;57.18;100157.41;5027460;28;20037;-68
2022/04/12 08:36:54;;;;;;;6.55;4.10;;;14.70;83.30;;;15.17;55.58;100157.34;5028256;28;20114;-71
2022/04/12 08:39:21;;;;;;;5.47;3.25;;;14.80;82.50;;;15.29;54.54;100163.84;5026689;28;20124;-70
2022/04/12 08:41:51;;;;;;;7.47;4.05;;;15.00;81.90;;;15.39;54.85;100153.69;5038403;28;20410;-68
2022/04/12 08:44:19;;;;;;;4.00;3.03;;;15.10;81.90;;;15.55;55.20;100159.97;5017396;28;20046;-72
2022/04/12 08:46:47;;;;;;;6.13;3.70;;;15.20;82.00;;;15.68;54.14;100162.88;5026903;28;20162;-71
2022/04/12 08:49:15;;;;;;;5.65;3.60;;;15.30;81.40;;;15.78;52.47;100155.31;5025267;28;20038;-71
2022/04/12 08:51:45;;;;;;;7.35;3.55;;;15.50;80.10;;;15.87;51.10;100162.84;5009752;28;20053;-70
2022/04/12 08:54:12;;;;;;;5.53;3.50;;;15.50;78.90;;;15.99;51.13;100155.22;5007924;28;20136;-72
2022/04/12 08:56:43;;;;;;;6.43;3.83;;;15.70;78.80;;;16.11;50.38;100167.03;5020811;28;20069;-72
2022/04/12 08:59:10;;;;;;;7.13;3.15;;;15.80;78.10;;;16.21;48.37;100167.44;5028240;28;20055;-70
2022/04/12 09:01:39;;;;;;;6.68;3.63;;;15.90;76.60;;;16.33;49.12;100158.84;5016231;28;20571;-72
2022/04/12 09:04:07;;;;;;;5.75;3.78;;;16.00;76.60;;;16.37;48.70;100162.16;5017991;28;20050;-75
2022/04/12 09:06:35;;;;;;;5.95;3.30;;;16.10;76.30;;;16.48;48.25;100161.63;5016686;28;20132;-72
2022/04/12 09:09:24;;;;;;;5.65;3.72;;;16.20;75.20;;;16.63;48.45;100159.97;5014607;28;20064;-71
2022/04/12 09:12:11;;;;;;;5.53;3.60;;;16.30;75.40;;;16.69;48.45;100163.16;5018508;28;20065;-70
2022/04/12 09:14:55;;;;;;;6.15;3.63;;;16.40;75.60;;;16.79;47.60;100158.22;5016912;28;20733;-70
2022/04/12 09:17:35;;;;;;;9.23;4.25;;;16.50;74.30;;;16.85;47.87;100163.19;5019785;28;20464;-69
2022/04/12 09:20:17;;;;;;;6.30;4.22;;;16.60;74.40;;;16.88;47.21;100156.84;5017512;28;20744;-73
2022/04/12 09:22:44;;;;;;;6.40;3.30;;;16.60;73.40;;;16.93;46.45;100144.16;5016755;28;20108;-69
2022/04/12 09:25:13;;;;;;;7.85;4.57;;;16.70;72.40;;;16.97;46.65;100142.22;5009479;28;20049;-71
2022/04/12 09:27:44;;;;;;;5.22;3.97;;;16.80;72.20;;;17.04;46.79;100140.97;5016756;28;20099;-70
2022/04/12 09:30:13;;;;;;;9.48;3.83;;;16.80;72.30;;;17.17;46.78;100141.16;5026031;28;20052;-71
2022/04/12 09:32:46;;;;;;;5.68;3.78;;;16.90;72.30;;;17.26;47.48;100140.66;5017929;28;20048;-70
2022/04/12 09:35:14;;;;;;;5.47;3.17;;;16.90;72.80;;;17.35;46.24;100135.75;5019066;28;20387;-69
2022/04/12 09:37:43;;;;;;;8.55;4.15;;;16.90;71.80;;;17.49;45.76;100141.16;5021131;28;20112;-70
2022/04/12 09:40:14;;;;;;;6.38;3.38;;;17.20;71.20;;;17.60;46.06;100139.69;5001358;28;20049;-69
2022/04/12 09:42:53;;;;;;;4.68;2.85;;;17.30;71.20;;;17.75;45.53;100144.13;5020152;28;20398;-70
2022/04/12 09:45:25;;;;;;;7.75;4.07;;;17.40;70.60;;;17.72;45.57;100142.50;5011289;28;20544;-74
2022/04/12 09:48:01;;;;;;;10.40;9.23;;;17.50;70.40;;;17.79;45.24;100129.69;4991339;28;20099;-70
2022/04/12 09:50:50;;;;;;;5.78;3.83;;;17.50;69.90;;;17.96;44.64;100134.03;5023802;28;20042;-68
2022/04/12 09:53:18;;;;;;;6.65;3.47;;;17.60;69.20;;;17.94;44.00;100127.91;5027532;28;20152;-70
2022/04/12 09:55:49;;;;;;;6.43;4.10;;;17.60;68.50;;;18.00;44.40;100129.38;5026672;28;20461;-70
2022/04/12 09:58:23;;;;;;;9.43;4.80;;;17.70;68.10;;;18.08;42.84;100121.84;5028155;28;20064;-71
2022/04/12 10:00:50;;;;;;;5.30;3.17;;;17.90;66.80;;;18.14;43.19;100129.44;5019825;28;20128;-71
2022/04/12 10:03:19;;;;;;;4.35;3.80;;;17.80;67.00;;;18.22;42.41;100126.31;5025538;28;20393;-70
2022/04/12 10:05:50;;;;;;;6.65;4.85;;;17.90;65.60;;;18.35;42.01;100129.13;5009100;28;20042;-70
2022/04/12 10:08:19;;;;;;;;;;;18.00;65.20;;;18.43;41.16;100121.50;5007345;28;20045;-70
2022/04/12 10:10:46;;;;;;;7.38;5.20;;;18.10;64.10;;;18.36;40.51;100116.66;5010720;28;19933;-70
2022/04/12 10:13:15;;;;;;;7.90;3.75;;;18.10;62.90;;;18.47;41.75;100116.84;5018019;28;20038;-71
2022/04/12 10:15:43;;;;;;;5.10;3.60;;;18.20;63.90;;;18.52;41.40;100112.09;5017311;28;20489;-72
2022/04/12 10:18:15;;;;;;;9.07;6.70;;;18.20;63.60;;;18.59;41.11;100103.75;5016700;28;20111;-72
2022/04/12 10:20:46;;;;;;;4.78;3.20;;;18.20;63.10;;;18.60;40.27;100092.97;5019488;28;20127;-70
2022/04/12 10:23:22;;;;;;;7.05;4.25;;;18.30;61.80;;;18.78;41.26;100100.75;5013878;28;20121;-70
2022/04/12 10:25:51;;;;;;;6.80;3.47;;;18.30;63.00;;;18.88;41.12;100090.38;5006990;28;20050;-69
2022/04/12 10:28:19;;;;;;;4.07;3.10;;;18.50;62.70;;;18.97;40.88;100084.47;5022909;28;20049;-69